Terminal Aerodrome Forecast
Issued by NWS Topeka, KS

Home | Current Version | Previous Version | Text Only | Print | Product List | Glossary On
Versions: 1 2 3 4 5 6 7 8 9 10 11 12 13 14 15 16 17 18 19
981
FTUS43 KTOP 220520
TAFTOP
TAF
KTOP 220520Z 2206/2306 04010KT P6SM SCT200
     FM221100 08010KT P6SM SCT200
     FM221800 11011KT P6SM SCT040 BKN150
     FM222200 12012KT P6SM OVC040
     FM230500 13011KT P6SM OVC023=

USA.gov is the U.S. government's official web portal to all federal, state and local government web resources and services.